sensor_id;sensor_type;location;lat;lon;timestamp;P1;durP1;ratioP1;P2;durP2;ratioP2
70247;SDS011;57641;51.416;5.506;2022-10-23T00:01:29;9.23;;;3.95;;
70247;SDS011;57641;51.416;5.506;2022-10-23T00:03:59;8.48;;;3.65;;
70247;SDS011;57641;51.416;5.506;2022-10-23T00:06:26;11.57;;;3.35;;
70247;SDS011;57641;51.416;5.506;2022-10-23T00:08:53;9.63;;;3.75;;
70247;SDS011;57641;51.416;5.506;2022-10-23T00:11:20;9.38;;;4.03;;
70247;SDS011;57641;51.416;5.506;2022-10-23T00:13:48;8.95;;;3.80;;
70247;SDS011;57641;51.416;5.506;2022-10-23T00:16:14;7.60;;;3.88;;
70247;SDS011;57641;51.416;5.506;2022-10-23T00:18:40;10.43;;;4.32;;
70247;SDS011;57641;51.416;5.506;2022-10-23T00:21:06;8.00;;;3.08;;
70247;SDS011;57641;51.416;5.506;2022-10-23T00:23:33;7.70;;;3.72;;
70247;SDS011;57641;51.416;5.506;2022-10-23T00:25:59;8.70;;;3.70;;
70247;SDS011;57641;51.416;5.506;2022-10-23T00:28:25;10.02;;;4.15;;
70247;SDS011;57641;51.416;5.506;2022-10-23T00:30:51;8.45;;;3.65;;
70247;SDS011;57641;51.416;5.506;2022-10-23T00:33:16;10.55;;;4.03;;
70247;SDS011;57641;51.416;5.506;2022-10-23T00:35:42;8.13;;;3.20;;
70247;SDS011;57641;51.416;5.506;2022-10-23T00:38:08;13.63;;;4.18;;
70247;SDS011;57641;51.416;5.506;2022-10-23T00:40:35;7.30;;;4.03;;
70247;SDS011;57641;51.416;5.506;2022-10-23T00:43:01;12.40;;;3.95;;
70247;SDS011;57641;51.416;5.506;2022-10-23T00:45:27;13.20;;;4.18;;
70247;SDS011;57641;51.416;5.506;2022-10-23T00:48:00;12.95;;;4.45;;
70247;SDS011;57641;51.416;5.506;2022-10-23T00:50:31;11.55;;;3.97;;
70247;SDS011;57641;51.416;5.506;2022-10-23T00:52:58;10.27;;;4.18;;
70247;SDS011;57641;51.416;5.506;2022-10-23T00:55:26;13.05;;;4.28;;
70247;SDS011;57641;51.416;5.506;2022-10-23T00:57:53;10.43;;;4.70;;
70247;SDS011;57641;51.416;5.506;2022-10-23T01:05:22;14.52;;;4.35;;
70247;SDS011;57641;51.416;5.506;2022-10-23T01:08:06;9.80;;;4.50;;
70247;SDS011;57641;51.416;5.506;2022-10-23T01:10:42;12.00;;;4.15;;
70247;SDS011;57641;51.416;5.506;2022-10-23T01:13:16;11.27;;;4.10;;
70247;SDS011;57641;51.416;5.506;2022-10-23T01:16:13;11.48;;;4.20;;
70247;SDS011;57641;51.416;5.506;2022-10-23T01:18:51;9.63;;;4.00;;
70247;SDS011;57641;51.416;5.506;2022-10-23T01:24:41;7.88;;;3.60;;
70247;SDS011;57641;51.416;5.506;2022-10-23T01:27:20;9.20;;;4.18;;
70247;SDS011;57641;51.416;5.506;2022-10-23T01:32:34;9.85;;;4.18;;
70247;SDS011;57641;51.416;5.506;2022-10-23T01:40:23;9.52;;;4.82;;
70247;SDS011;57641;51.416;5.506;2022-10-23T01:42:58;9.50;;;5.43;;
70247;SDS011;57641;51.416;5.506;2022-10-23T01:45:33;9.52;;;4.95;;
70247;SDS011;57641;51.416;5.506;2022-10-23T01:48:04;7.32;;;4.53;;
70247;SDS011;57641;51.416;5.506;2022-10-23T01:50:33;9.27;;;4.88;;
70247;SDS011;57641;51.416;5.506;2022-10-23T01:53:01;8.43;;;4.47;;
70247;SDS011;57641;51.416;5.506;2022-10-23T01:55:28;10.45;;;5.15;;
70247;SDS011;57641;51.416;5.506;2022-10-23T01:57:56;7.80;;;4.75;;
70247;SDS011;57641;51.416;5.506;2022-10-23T02:00:23;7.45;;;4.20;;
70247;SDS011;57641;51.416;5.506;2022-10-23T02:02:49;9.27;;;4.15;;
70247;SDS011;57641;51.416;5.506;2022-10-23T02:05:26;9.13;;;4.40;;
70247;SDS011;57641;51.416;5.506;2022-10-23T02:07:54;7.00;;;4.07;;
70247;SDS011;57641;51.416;5.506;2022-10-23T02:10:20;8.35;;;3.80;;
70247;SDS011;57641;51.416;5.506;2022-10-23T02:13:04;7.80;;;4.55;;
70247;SDS011;57641;51.416;5.506;2022-10-23T02:15:37;9.35;;;3.72;;
70247;SDS011;57641;51.416;5.506;2022-10-23T02:20:44;10.48;;;4.07;;
70247;SDS011;57641;51.416;5.506;2022-10-23T02:23:34;7.85;;;4.30;;
70247;SDS011;57641;51.416;5.506;2022-10-23T02:26:14;13.93;;;5.10;;
70247;SDS011;57641;51.416;5.506;2022-10-23T02:28:45;8.57;;;4.68;;
70247;SDS011;57641;51.416;5.506;2022-10-23T02:31:15;7.80;;;4.00;;
70247;SDS011;57641;51.416;5.506;2022-10-23T02:33:44;8.20;;;4.40;;
70247;SDS011;57641;51.416;5.506;2022-10-23T02:36:11;13.90;;;5.53;;
70247;SDS011;57641;51.416;5.506;2022-10-23T02:38:39;11.50;;;4.65;;
70247;SDS011;57641;51.416;5.506;2022-10-23T02:43:58;8.73;;;4.55;;
70247;SDS011;57641;51.416;5.506;2022-10-23T02:51:57;10.52;;;4.72;;
70247;SDS011;57641;51.416;5.506;2022-10-23T02:57:13;9.50;;;4.43;;
70247;SDS011;57641;51.416;5.506;2022-10-23T02:59:51;7.55;;;4.85;;
70247;SDS011;57641;51.416;5.506;2022-10-23T03:02:23;8.77;;;4.95;;
70247;SDS011;57641;51.416;5.506;2022-10-23T03:04:53;8.15;;;5.07;;
70247;SDS011;57641;51.416;5.506;2022-10-23T03:07:20;11.20;;;5.22;;
70247;SDS011;57641;51.416;5.506;2022-10-23T03:09:46;11.80;;;5.22;;
70247;SDS011;57641;51.416;5.506;2022-10-23T03:12:11;10.63;;;4.35;;
70247;SDS011;57641;51.416;5.506;2022-10-23T03:14:38;10.13;;;5.20;;
70247;SDS011;57641;51.416;5.506;2022-10-23T03:17:03;8.50;;;4.50;;
70247;SDS011;57641;51.416;5.506;2022-10-23T03:19:29;11.27;;;5.10;;
70247;SDS011;57641;51.416;5.506;2022-10-23T03:21:55;10.68;;;5.35;;
70247;SDS011;57641;51.416;5.506;2022-10-23T03:24:20;14.02;;;5.47;;
70247;SDS011;57641;51.416;5.506;2022-10-23T03:26:46;10.68;;;5.68;;
70247;SDS011;57641;51.416;5.506;2022-10-23T03:29:11;10.55;;;6.03;;
70247;SDS011;57641;51.416;5.506;2022-10-23T03:31:36;13.32;;;5.88;;
70247;SDS011;57641;51.416;5.506;2022-10-23T03:34:02;10.73;;;5.28;;
70247;SDS011;57641;51.416;5.506;2022-10-23T03:36:27;11.20;;;5.43;;
70247;SDS011;57641;51.416;5.506;2022-10-23T03:38:53;12.80;;;5.75;;
70247;SDS011;57641;51.416;5.506;2022-10-23T03:41:18;11.63;;;5.03;;
70247;SDS011;57641;51.416;5.506;2022-10-23T03:43:44;13.45;;;6.30;;
70247;SDS011;57641;51.416;5.506;2022-10-23T03:46:09;10.65;;;5.00;;
70247;SDS011;57641;51.416;5.506;2022-10-23T03:48:36;14.10;;;5.90;;
70247;SDS011;57641;51.416;5.506;2022-10-23T03:51:06;9.38;;;4.75;;
70247;SDS011;57641;51.416;5.506;2022-10-23T03:53:31;13.00;;;5.32;;
70247;SDS011;57641;51.416;5.506;2022-10-23T03:55:57;10.48;;;5.25;;
70247;SDS011;57641;51.416;5.506;2022-10-23T03:58:22;8.95;;;6.00;;
70247;SDS011;57641;51.416;5.506;2022-10-23T04:00:47;10.02;;;5.40;;
70247;SDS011;57641;51.416;5.506;2022-10-23T04:03:13;11.52;;;5.30;;
70247;SDS011;57641;51.416;5.506;2022-10-23T04:05:39;11.52;;;5.32;;
70247;SDS011;57641;51.416;5.506;2022-10-23T04:08:05;13.20;;;5.88;;
70247;SDS011;57641;51.416;5.506;2022-10-23T04:10:31;11.75;;;5.53;;
70247;SDS011;57641;51.416;5.506;2022-10-23T04:12:56;11.85;;;5.45;;
70247;SDS011;57641;51.416;5.506;2022-10-23T04:15:22;9.90;;;5.55;;
70247;SDS011;57641;51.416;5.506;2022-10-23T04:17:47;11.35;;;5.50;;
70247;SDS011;57641;51.416;5.506;2022-10-23T04:20:13;12.77;;;5.90;;
70247;SDS011;57641;51.416;5.506;2022-10-23T04:22:38;9.95;;;5.10;;
70247;SDS011;57641;51.416;5.506;2022-10-23T04:25:04;9.77;;;5.38;;
70247;SDS011;57641;51.416;5.506;2022-10-23T04:27:30;14.05;;;5.68;;
70247;SDS011;57641;51.416;5.506;2022-10-23T04:29:55;15.13;;;6.03;;
70247;SDS011;57641;51.416;5.506;2022-10-23T04:32:20;10.32;;;5.50;;
70247;SDS011;57641;51.416;5.506;2022-10-23T04:34:46;9.52;;;5.28;;
70247;SDS011;57641;51.416;5.506;2022-10-23T04:37:11;10.73;;;5.72;;
70247;SDS011;57641;51.416;5.506;2022-10-23T04:39:37;9.27;;;4.90;;
70247;SDS011;57641;51.416;5.506;2022-10-23T04:42:02;10.68;;;5.25;;
70247;SDS011;57641;51.416;5.506;2022-10-23T04:44:28;10.88;;;5.55;;
70247;SDS011;57641;51.416;5.506;2022-10-23T04:46:53;13.32;;;5.57;;
70247;SDS011;57641;51.416;5.506;2022-10-23T04:49:18;11.35;;;5.47;;
70247;SDS011;57641;51.416;5.506;2022-10-23T04:51:44;9.02;;;4.75;;
70247;SDS011;57641;51.416;5.506;2022-10-23T04:54:09;7.82;;;5.20;;
70247;SDS011;57641;51.416;5.506;2022-10-23T04:56:34;10.65;;;5.75;;
70247;SDS011;57641;51.416;5.506;2022-10-23T04:59:00;9.90;;;5.25;;
70247;SDS011;57641;51.416;5.506;2022-10-23T05:01:26;14.05;;;6.00;;
70247;SDS011;57641;51.416;5.506;2022-10-23T05:03:51;10.25;;;5.25;;
70247;SDS011;57641;51.416;5.506;2022-10-23T05:06:18;10.93;;;5.47;;
70247;SDS011;57641;51.416;5.506;2022-10-23T05:08:44;7.93;;;5.00;;
70247;SDS011;57641;51.416;5.506;2022-10-23T05:11:09;9.07;;;4.70;;
70247;SDS011;57641;51.416;5.506;2022-10-23T05:13:35;8.32;;;5.10;;
70247;SDS011;57641;51.416;5.506;2022-10-23T05:16:01;8.45;;;4.50;;
70247;SDS011;57641;51.416;5.506;2022-10-23T05:18:31;10.77;;;4.65;;
70247;SDS011;57641;51.416;5.506;2022-10-23T05:21:11;8.00;;;4.25;;
70247;SDS011;57641;51.416;5.506;2022-10-23T05:23:42;10.75;;;4.50;;
70247;SDS011;57641;51.416;5.506;2022-10-23T05:26:09;9.70;;;4.25;;
70247;SDS011;57641;51.416;5.506;2022-10-23T05:28:34;9.73;;;4.20;;
70247;SDS011;57641;51.416;5.506;2022-10-23T05:31:01;8.95;;;4.50;;
70247;SDS011;57641;51.416;5.506;2022-10-23T05:33:29;10.10;;;4.63;;
70247;SDS011;57641;51.416;5.506;2022-10-23T05:35:55;10.77;;;4.90;;
70247;SDS011;57641;51.416;5.506;2022-10-23T05:38:22;9.88;;;4.15;;
70247;SDS011;57641;51.416;5.506;2022-10-23T05:40:50;9.73;;;4.15;;
70247;SDS011;57641;51.416;5.506;2022-10-23T05:43:16;6.00;;;4.32;;
70247;SDS011;57641;51.416;5.506;2022-10-23T05:45:41;7.25;;;3.95;;
70247;SDS011;57641;51.416;5.506;2022-10-23T05:48:07;7.25;;;3.72;;
70247;SDS011;57641;51.416;5.506;2022-10-23T05:50:36;9.23;;;4.35;;
70247;SDS011;57641;51.416;5.506;2022-10-23T05:53:01;8.70;;;4.28;;
70247;SDS011;57641;51.416;5.506;2022-10-23T05:55:27;9.82;;;4.25;;
70247;SDS011;57641;51.416;5.506;2022-10-23T05:57:52;10.85;;;5.22;;
70247;SDS011;57641;51.416;5.506;2022-10-23T06:00:18;10.75;;;4.22;;
70247;SDS011;57641;51.416;5.506;2022-10-23T06:02:43;11.13;;;4.75;;
70247;SDS011;57641;51.416;5.506;2022-10-23T06:05:08;8.48;;;4.03;;
70247;SDS011;57641;51.416;5.506;2022-10-23T06:07:34;8.10;;;3.85;;
70247;SDS011;57641;51.416;5.506;2022-10-23T06:10:00;9.00;;;3.78;;
70247;SDS011;57641;51.416;5.506;2022-10-23T06:12:25;7.85;;;3.70;;
70247;SDS011;57641;51.416;5.506;2022-10-23T06:14:51;9.93;;;4.30;;
70247;SDS011;57641;51.416;5.506;2022-10-23T06:17:16;7.07;;;3.90;;
70247;SDS011;57641;51.416;5.506;2022-10-23T06:19:42;9.35;;;4.43;;
70247;SDS011;57641;51.416;5.506;2022-10-23T06:22:09;6.82;;;4.15;;
70247;SDS011;57641;51.416;5.506;2022-10-23T06:24:34;9.88;;;3.80;;
70247;SDS011;57641;51.416;5.506;2022-10-23T06:27:00;10.43;;;4.43;;
70247;SDS011;57641;51.416;5.506;2022-10-23T06:29:25;12.40;;;4.57;;
70247;SDS011;57641;51.416;5.506;2022-10-23T06:31:51;8.90;;;4.35;;
70247;SDS011;57641;51.416;5.506;2022-10-23T06:34:16;10.35;;;3.90;;
70247;SDS011;57641;51.416;5.506;2022-10-23T06:36:41;9.77;;;4.45;;
70247;SDS011;57641;51.416;5.506;2022-10-23T06:39:07;10.18;;;4.38;;
70247;SDS011;57641;51.416;5.506;2022-10-23T06:41:34;7.53;;;4.10;;
70247;SDS011;57641;51.416;5.506;2022-10-23T06:43:59;9.02;;;4.18;;
70247;SDS011;57641;51.416;5.506;2022-10-23T06:46:26;6.15;;;3.65;;
70247;SDS011;57641;51.416;5.506;2022-10-23T06:48:53;7.60;;;4.10;;
70247;SDS011;57641;51.416;5.506;2022-10-23T06:51:19;8.23;;;3.75;;
70247;SDS011;57641;51.416;5.506;2022-10-23T06:53:46;7.07;;;3.80;;
70247;SDS011;57641;51.416;5.506;2022-10-23T06:56:12;7.38;;;3.40;;
70247;SDS011;57641;51.416;5.506;2022-10-23T06:58:38;6.80;;;4.03;;
70247;SDS011;57641;51.416;5.506;2022-10-23T07:01:05;9.05;;;3.92;;
70247;SDS011;57641;51.416;5.506;2022-10-23T07:03:32;8.60;;;3.92;;
70247;SDS011;57641;51.416;5.506;2022-10-23T07:05:59;6.30;;;3.83;;
70247;SDS011;57641;51.416;5.506;2022-10-23T07:08:26;7.05;;;3.83;;
70247;SDS011;57641;51.416;5.506;2022-10-23T07:10:52;7.05;;;3.30;;
70247;SDS011;57641;51.416;5.506;2022-10-23T07:13:18;7.55;;;3.63;;
70247;SDS011;57641;51.416;5.506;2022-10-23T07:15:44;6.60;;;3.65;;
70247;SDS011;57641;51.416;5.506;2022-10-23T07:18:09;9.60;;;3.95;;
70247;SDS011;57641;51.416;5.506;2022-10-23T07:20:39;7.70;;;3.47;;
70247;SDS011;57641;51.416;5.506;2022-10-23T07:23:08;9.45;;;3.95;;
70247;SDS011;57641;51.416;5.506;2022-10-23T07:25:35;9.50;;;3.70;;
70247;SDS011;57641;51.416;5.506;2022-10-23T07:28:02;5.32;;;2.97;;
70247;SDS011;57641;51.416;5.506;2022-10-23T07:30:28;5.72;;;3.60;;
70247;SDS011;57641;51.416;5.506;2022-10-23T07:32:53;10.48;;;3.60;;
70247;SDS011;57641;51.416;5.506;2022-10-23T07:35:19;8.27;;;3.63;;
70247;SDS011;57641;51.416;5.506;2022-10-23T07:37:44;8.13;;;3.05;;
70247;SDS011;57641;51.416;5.506;2022-10-23T07:40:10;12.63;;;3.90;;
70247;SDS011;57641;51.416;5.506;2022-10-23T07:42:36;8.88;;;3.50;;
70247;SDS011;57641;51.416;5.506;2022-10-23T07:45:03;6.97;;;3.40;;
70247;SDS011;57641;51.416;5.506;2022-10-23T07:47:30;7.38;;;3.15;;
70247;SDS011;57641;51.416;5.506;2022-10-23T07:49:56;8.43;;;3.33;;
70247;SDS011;57641;51.416;5.506;2022-10-23T07:52:22;7.32;;;3.83;;
70247;SDS011;57641;51.416;5.506;2022-10-23T07:54:51;7.57;;;3.72;;
70247;SDS011;57641;51.416;5.506;2022-10-23T07:57:17;9.23;;;3.83;;
70247;SDS011;57641;51.416;5.506;2022-10-23T07:59:43;7.43;;;3.60;;
70247;SDS011;57641;51.416;5.506;2022-10-23T08:02:12;7.40;;;3.08;;
70247;SDS011;57641;51.416;5.506;2022-10-23T08:04:39;6.22;;;3.55;;
70247;SDS011;57641;51.416;5.506;2022-10-23T08:07:04;6.35;;;3.67;;
70247;SDS011;57641;51.416;5.506;2022-10-23T08:09:30;6.88;;;3.35;;
70247;SDS011;57641;51.416;5.506;2022-10-23T08:11:56;5.22;;;3.20;;
70247;SDS011;57641;51.416;5.506;2022-10-23T08:14:21;8.93;;;3.55;;
70247;SDS011;57641;51.416;5.506;2022-10-23T08:16:47;6.95;;;3.58;;
70247;SDS011;57641;51.416;5.506;2022-10-23T08:19:12;4.95;;;3.17;;
70247;SDS011;57641;51.416;5.506;2022-10-23T08:21:37;5.28;;;3.25;;
70247;SDS011;57641;51.416;5.506;2022-10-23T08:24:03;6.78;;;3.63;;
70247;SDS011;57641;51.416;5.506;2022-10-23T08:26:29;8.05;;;3.33;;
70247;SDS011;57641;51.416;5.506;2022-10-23T08:28:54;6.93;;;3.40;;
70247;SDS011;57641;51.416;5.506;2022-10-23T08:31:22;5.25;;;2.83;;
70247;SDS011;57641;51.416;5.506;2022-10-23T08:33:47;11.63;;;3.55;;
70247;SDS011;57641;51.416;5.506;2022-10-23T08:38:47;8.05;;;3.28;;
70247;SDS011;57641;51.416;5.506;2022-10-23T08:41:24;10.55;;;3.80;;
70247;SDS011;57641;51.416;5.506;2022-10-23T08:43:52;7.03;;;3.70;;
70247;SDS011;57641;51.416;5.506;2022-10-23T08:46:25;7.13;;;3.50;;
70247;SDS011;57641;51.416;5.506;2022-10-23T08:49:05;9.63;;;3.75;;
70247;SDS011;57641;51.416;5.506;2022-10-23T08:51:45;8.15;;;4.00;;
70247;SDS011;57641;51.416;5.506;2022-10-23T08:54:14;11.65;;;3.60;;
70247;SDS011;57641;51.416;5.506;2022-10-23T08:56:49;6.90;;;3.38;;
70247;SDS011;57641;51.416;5.506;2022-10-23T09:02:09;7.93;;;3.53;;
70247;SDS011;57641;51.416;5.506;2022-10-23T09:04:42;8.57;;;3.50;;
70247;SDS011;57641;51.416;5.506;2022-10-23T09:09:49;10.25;;;3.72;;
70247;SDS011;57641;51.416;5.506;2022-10-23T09:12:26;6.32;;;3.03;;
70247;SDS011;57641;51.416;5.506;2022-10-23T09:17:29;6.22;;;3.60;;
70247;SDS011;57641;51.416;5.506;2022-10-23T09:22:52;5.93;;;3.17;;
70247;SDS011;57641;51.416;5.506;2022-10-23T09:25:22;6.75;;;3.00;;
70247;SDS011;57641;51.416;5.506;2022-10-23T09:27:51;8.57;;;3.15;;
70247;SDS011;57641;51.416;5.506;2022-10-23T09:32:53;5.93;;;3.00;;
70247;SDS011;57641;51.416;5.506;2022-10-23T09:35:20;7.55;;;3.25;;
70247;SDS011;57641;51.416;5.506;2022-10-23T09:37:47;6.55;;;3.58;;
70247;SDS011;57641;51.416;5.506;2022-10-23T09:43:02;8.07;;;4.38;;
70247;SDS011;57641;51.416;5.506;2022-10-23T09:45:38;8.15;;;3.95;;
70247;SDS011;57641;51.416;5.506;2022-10-23T09:48:18;11.55;;;4.65;;
70247;SDS011;57641;51.416;5.506;2022-10-23T09:50:48;7.95;;;3.58;;
70247;SDS011;57641;51.416;5.506;2022-10-23T09:53:26;6.43;;;3.50;;
70247;SDS011;57641;51.416;5.506;2022-10-23T09:56:40;5.85;;;3.05;;
70247;SDS011;57641;51.416;5.506;2022-10-23T09:59:18;9.27;;;3.33;;
70247;SDS011;57641;51.416;5.506;2022-10-23T10:01:48;5.78;;;3.20;;
70247;SDS011;57641;51.416;5.506;2022-10-23T10:04:14;6.45;;;2.95;;
70247;SDS011;57641;51.416;5.506;2022-10-23T10:06:40;4.82;;;3.30;;
70247;SDS011;57641;51.416;5.506;2022-10-23T10:09:09;7.30;;;3.55;;
70247;SDS011;57641;51.416;5.506;2022-10-23T10:11:39;5.15;;;3.28;;
70247;SDS011;57641;51.416;5.506;2022-10-23T10:27:46;5.18;;;2.90;;
70247;SDS011;57641;51.416;5.506;2022-10-23T10:30:33;6.55;;;3.00;;
70247;SDS011;57641;51.416;5.506;2022-10-23T10:38:37;4.60;;;2.50;;
70247;SDS011;57641;51.416;5.506;2022-10-23T10:41:22;4.90;;;2.72;;
70247;SDS011;57641;51.416;5.506;2022-10-23T10:46:55;5.80;;;2.67;;
70247;SDS011;57641;51.416;5.506;2022-10-23T10:55:03;4.38;;;2.50;;
70247;SDS011;57641;51.416;5.506;2022-10-23T10:57:44;5.15;;;2.17;;
70247;SDS011;57641;51.416;5.506;2022-10-23T11:00:16;5.57;;;2.53;;
70247;SDS011;57641;51.416;5.506;2022-10-23T11:05:32;4.35;;;2.20;;
70247;SDS011;57641;51.416;5.506;2022-10-23T11:08:18;6.10;;;3.00;;
70247;SDS011;57641;51.416;5.506;2022-10-23T11:10:53;6.70;;;2.58;;
70247;SDS011;57641;51.416;5.506;2022-10-23T11:13:26;4.35;;;2.10;;
70247;SDS011;57641;51.416;5.506;2022-10-23T11:15:54;4.63;;;2.38;;
70247;SDS011;57641;51.416;5.506;2022-10-23T11:18:25;6.80;;;2.72;;
70247;SDS011;57641;51.416;5.506;2022-10-23T11:20:58;4.85;;;2.30;;
70247;SDS011;57641;51.416;5.506;2022-10-23T11:26:24;3.95;;;2.13;;
70247;SDS011;57641;51.416;5.506;2022-10-23T11:29:08;4.35;;;2.60;;
70247;SDS011;57641;51.416;5.506;2022-10-23T11:31:42;5.28;;;2.80;;
70247;SDS011;57641;51.416;5.506;2022-10-23T11:37:02;6.40;;;3.38;;
70247;SDS011;57641;51.416;5.506;2022-10-23T11:39:32;6.03;;;2.70;;
70247;SDS011;57641;51.416;5.506;2022-10-23T11:42:11;7.65;;;2.85;;
70247;SDS011;57641;51.416;5.506;2022-10-23T11:44:40;9.57;;;2.85;;
70247;SDS011;57641;51.416;5.506;2022-10-23T11:52:51;4.22;;;2.08;;
70247;SDS011;57641;51.416;5.506;2022-10-23T11:55:23;3.42;;;2.10;;
70247;SDS011;57641;51.416;5.506;2022-10-23T11:58:26;6.55;;;2.50;;
70247;SDS011;57641;51.416;5.506;2022-10-23T12:00:57;4.65;;;2.40;;
70247;SDS011;57641;51.416;5.506;2022-10-23T12:03:38;6.25;;;2.50;;
70247;SDS011;57641;51.416;5.506;2022-10-23T12:06:19;4.40;;;2.20;;
70247;SDS011;57641;51.416;5.506;2022-10-23T12:08:50;5.22;;;2.33;;
70247;SDS011;57641;51.416;5.506;2022-10-23T12:11:26;3.60;;;1.92;;
70247;SDS011;57641;51.416;5.506;2022-10-23T12:16:55;3.38;;;1.77;;
70247;SDS011;57641;51.416;5.506;2022-10-23T12:19:21;4.22;;;1.92;;
70247;SDS011;57641;51.416;5.506;2022-10-23T12:21:50;3.60;;;1.85;;
70247;SDS011;57641;51.416;5.506;2022-10-23T12:32:45;5.43;;;1.80;;
70247;SDS011;57641;51.416;5.506;2022-10-23T12:40:29;5.10;;;2.05;;
70247;SDS011;57641;51.416;5.506;2022-10-23T12:42:56;4.90;;;2.10;;
70247;SDS011;57641;51.416;5.506;2022-10-23T12:45:30;4.93;;;2.03;;
70247;SDS011;57641;51.416;5.506;2022-10-23T12:48:00;3.78;;;1.67;;
70247;SDS011;57641;51.416;5.506;2022-10-23T12:50:27;3.65;;;2.00;;
70247;SDS011;57641;51.416;5.506;2022-10-23T12:52:56;5.70;;;1.92;;
70247;SDS011;57641;51.416;5.506;2022-10-23T12:55:31;4.10;;;2.45;;
70247;SDS011;57641;51.416;5.506;2022-10-23T12:58:36;4.38;;;1.95;;
70247;SDS011;57641;51.416;5.506;2022-10-23T13:01:02;2.92;;;1.65;;
70247;SDS011;57641;51.416;5.506;2022-10-23T13:03:30;2.60;;;1.60;;
70247;SDS011;57641;51.416;5.506;2022-10-23T13:05:58;9.02;;;2.30;;
70247;SDS011;57641;51.416;5.506;2022-10-23T13:08:33;4.65;;;2.17;;
70247;SDS011;57641;51.416;5.506;2022-10-23T13:11:03;5.03;;;2.25;;
70247;SDS011;57641;51.416;5.506;2022-10-23T13:13:38;4.07;;;2.00;;
70247;SDS011;57641;51.416;5.506;2022-10-23T13:19:00;4.68;;;2.13;;
70247;SDS011;57641;51.416;5.506;2022-10-23T13:21:26;4.18;;;2.70;;
70247;SDS011;57641;51.416;5.506;2022-10-23T13:23:54;3.40;;;2.28;;
70247;SDS011;57641;51.416;5.506;2022-10-23T13:28:52;4.72;;;2.28;;
70247;SDS011;57641;51.416;5.506;2022-10-23T13:31:33;3.88;;;1.67;;
70247;SDS011;57641;51.416;5.506;2022-10-23T13:36:26;2.47;;;1.60;;
70247;SDS011;57641;51.416;5.506;2022-10-23T13:39:11;5.70;;;2.10;;
70247;SDS011;57641;51.416;5.506;2022-10-23T13:44:08;7.47;;;2.17;;
70247;SDS011;57641;51.416;5.506;2022-10-23T13:46:36;5.22;;;2.10;;
70247;SDS011;57641;51.416;5.506;2022-10-23T13:49:01;1.92;;;1.60;;
70247;SDS011;57641;51.416;5.506;2022-10-23T13:51:28;2.97;;;1.88;;
70247;SDS011;57641;51.416;5.506;2022-10-23T13:53:56;4.25;;;2.20;;
70247;SDS011;57641;51.416;5.506;2022-10-23T13:56:24;3.00;;;1.63;;
70247;SDS011;57641;51.416;5.506;2022-10-23T13:58:51;5.68;;;1.90;;
70247;SDS011;57641;51.416;5.506;2022-10-23T14:01:22;4.35;;;1.67;;
70247;SDS011;57641;51.416;5.506;2022-10-23T14:03:50;4.55;;;1.90;;
70247;SDS011;57641;51.416;5.506;2022-10-23T14:06:16;3.75;;;1.90;;
70247;SDS011;57641;51.416;5.506;2022-10-23T14:08:43;5.18;;;2.20;;
70247;SDS011;57641;51.416;5.506;2022-10-23T14:11:13;2.78;;;1.85;;
70247;SDS011;57641;51.416;5.506;2022-10-23T14:13:43;4.93;;;2.13;;
70247;SDS011;57641;51.416;5.506;2022-10-23T14:16:13;2.75;;;1.60;;
70247;SDS011;57641;51.416;5.506;2022-10-23T14:18:41;4.35;;;1.73;;
70247;SDS011;57641;51.416;5.506;2022-10-23T14:21:07;3.70;;;1.75;;
70247;SDS011;57641;51.416;5.506;2022-10-23T14:23:36;3.80;;;2.00;;
70247;SDS011;57641;51.416;5.506;2022-10-23T14:26:02;5.07;;;1.77;;
70247;SDS011;57641;51.416;5.506;2022-10-23T14:28:29;4.53;;;1.83;;
70247;SDS011;57641;51.416;5.506;2022-10-23T14:30:55;5.25;;;1.73;;
70247;SDS011;57641;51.416;5.506;2022-10-23T14:33:20;2.58;;;1.75;;
70247;SDS011;57641;51.416;5.506;2022-10-23T14:35:48;5.72;;;1.98;;
70247;SDS011;57641;51.416;5.506;2022-10-23T14:38:14;4.25;;;1.80;;
70247;SDS011;57641;51.416;5.506;2022-10-23T14:40:39;4.15;;;1.73;;
70247;SDS011;57641;51.416;5.506;2022-10-23T14:43:05;4.82;;;1.70;;
70247;SDS011;57641;51.416;5.506;2022-10-23T14:45:35;3.70;;;2.05;;
70247;SDS011;57641;51.416;5.506;2022-10-23T14:48:01;4.57;;;2.10;;
70247;SDS011;57641;51.416;5.506;2022-10-23T14:50:28;3.10;;;2.03;;
70247;SDS011;57641;51.416;5.506;2022-10-23T14:52:56;4.30;;;1.80;;
70247;SDS011;57641;51.416;5.506;2022-10-23T14:55:21;4.18;;;1.73;;
70247;SDS011;57641;51.416;5.506;2022-10-23T14:57:47;5.53;;;1.90;;
70247;SDS011;57641;51.416;5.506;2022-10-23T15:00:13;3.53;;;1.83;;
70247;SDS011;57641;51.416;5.506;2022-10-23T15:02:39;4.47;;;1.95;;
70247;SDS011;57641;51.416;5.506;2022-10-23T15:05:07;5.93;;;1.90;;
70247;SDS011;57641;51.416;5.506;2022-10-23T15:07:32;5.18;;;2.03;;
70247;SDS011;57641;51.416;5.506;2022-10-23T15:09:58;3.72;;;2.15;;
70247;SDS011;57641;51.416;5.506;2022-10-23T15:12:26;5.60;;;1.95;;
70247;SDS011;57641;51.416;5.506;2022-10-23T15:14:52;3.60;;;1.90;;
70247;SDS011;57641;51.416;5.506;2022-10-23T15:17:18;3.60;;;1.85;;
70247;SDS011;57641;51.416;5.506;2022-10-23T15:19:43;7.80;;;1.92;;
70247;SDS011;57641;51.416;5.506;2022-10-23T15:22:09;6.53;;;2.00;;
70247;SDS011;57641;51.416;5.506;2022-10-23T15:24:34;6.22;;;2.10;;
70247;SDS011;57641;51.416;5.506;2022-10-23T15:27:00;6.07;;;2.10;;
70247;SDS011;57641;51.416;5.506;2022-10-23T15:29:26;3.20;;;1.75;;
70247;SDS011;57641;51.416;5.506;2022-10-23T15:31:53;4.70;;;2.30;;
70247;SDS011;57641;51.416;5.506;2022-10-23T15:34:22;3.60;;;2.05;;
70247;SDS011;57641;51.416;5.506;2022-10-23T15:36:50;6.28;;;2.35;;
70247;SDS011;57641;51.416;5.506;2022-10-23T15:39:17;4.93;;;2.13;;
70247;SDS011;57641;51.416;5.506;2022-10-23T15:41:49;6.47;;;2.20;;
70247;SDS011;57641;51.416;5.506;2022-10-23T15:44:17;6.45;;;2.45;;
70247;SDS011;57641;51.416;5.506;2022-10-23T15:46:44;11.18;;;4.93;;
70247;SDS011;57641;51.416;5.506;2022-10-23T15:49:10;7.20;;;4.43;;
70247;SDS011;57641;51.416;5.506;2022-10-23T15:51:36;11.85;;;4.90;;
70247;SDS011;57641;51.416;5.506;2022-10-23T15:54:04;6.50;;;4.22;;
70247;SDS011;57641;51.416;5.506;2022-10-23T15:56:30;6.80;;;3.33;;
70247;SDS011;57641;51.416;5.506;2022-10-23T15:58:56;5.35;;;4.68;;
70247;SDS011;57641;51.416;5.506;2022-10-23T16:01:21;9.80;;;3.35;;
70247;SDS011;57641;51.416;5.506;2022-10-23T16:03:50;9.10;;;4.97;;
70247;SDS011;57641;51.416;5.506;2022-10-23T16:06:19;13.60;;;6.40;;
70247;SDS011;57641;51.416;5.506;2022-10-23T16:08:45;6.53;;;4.32;;
70247;SDS011;57641;51.416;5.506;2022-10-23T16:11:16;9.55;;;3.05;;
70247;SDS011;57641;51.416;5.506;2022-10-23T16:13:45;3.97;;;2.30;;
70247;SDS011;57641;51.416;5.506;2022-10-23T16:16:12;6.68;;;2.58;;
70247;SDS011;57641;51.416;5.506;2022-10-23T16:18:38;6.30;;;2.53;;
70247;SDS011;57641;51.416;5.506;2022-10-23T16:21:04;26.73;;;14.60;;
70247;SDS011;57641;51.416;5.506;2022-10-23T16:23:30;47.58;;;24.35;;
70247;SDS011;57641;51.416;5.506;2022-10-23T16:26:00;108.93;;;57.80;;
70247;SDS011;57641;51.416;5.506;2022-10-23T16:28:26;44.55;;;23.88;;
70247;SDS011;57641;51.416;5.506;2022-10-23T16:30:52;115.80;;;60.72;;
70247;SDS011;57641;51.416;5.506;2022-10-23T16:33:17;97.93;;;50.53;;
70247;SDS011;57641;51.416;5.506;2022-10-23T16:35:42;43.95;;;22.95;;
70247;SDS011;57641;51.416;5.506;2022-10-23T16:38:08;66.00;;;34.50;;
70247;SDS011;57641;51.416;5.506;2022-10-23T16:40:33;40.15;;;20.17;;
70247;SDS011;57641;51.416;5.506;2022-10-23T16:42:59;20.17;;;10.07;;
70247;SDS011;57641;51.416;5.506;2022-10-23T16:45:24;9.70;;;4.47;;
70247;SDS011;57641;51.416;5.506;2022-10-23T16:47:49;5.55;;;2.90;;
70247;SDS011;57641;51.416;5.506;2022-10-23T16:50:15;8.32;;;2.42;;